sensor_id;sensor_type;location;lat;lon;timestamp;P1;durP1;ratioP1;P2;durP2;ratioP2
39066;SDS011;24821;51.988;6.020;2022-07-25T00:00:05;15.27;;;14.52;;
39066;SDS011;24821;51.988;6.020;2022-07-25T00:02:33;14.32;;;13.65;;
39066;SDS011;24821;51.988;6.020;2022-07-25T00:04:59;14.55;;;13.85;;
39066;SDS011;24821;51.988;6.020;2022-07-25T00:07:25;14.82;;;14.13;;
39066;SDS011;24821;51.988;6.020;2022-07-25T00:09:51;14.55;;;13.85;;
39066;SDS011;24821;51.988;6.020;2022-07-25T00:12:16;14.32;;;13.63;;
39066;SDS011;24821;51.988;6.020;2022-07-25T00:14:42;15.13;;;14.40;;
39066;SDS011;24821;51.988;6.020;2022-07-25T00:17:08;15.52;;;14.82;;
39066;SDS011;24821;51.988;6.020;2022-07-25T00:19:34;15.00;;;14.30;;
39066;SDS011;24821;51.988;6.020;2022-07-25T00:21:59;14.43;;;13.73;;
39066;SDS011;24821;51.988;6.020;2022-07-25T00:24:25;15.15;;;14.45;;
39066;SDS011;24821;51.988;6.020;2022-07-25T00:26:50;14.75;;;14.15;;
39066;SDS011;24821;51.988;6.020;2022-07-25T00:29:16;17.95;;;17.05;;
39066;SDS011;24821;51.988;6.020;2022-07-25T00:31:41;16.73;;;15.98;;
39066;SDS011;24821;51.988;6.020;2022-07-25T00:34:07;16.13;;;15.38;;
39066;SDS011;24821;51.988;6.020;2022-07-25T00:36:32;14.82;;;14.10;;
39066;SDS011;24821;51.988;6.020;2022-07-25T00:38:58;16.95;;;16.05;;
39066;SDS011;24821;51.988;6.020;2022-07-25T00:41:23;15.38;;;14.57;;
39066;SDS011;24821;51.988;6.020;2022-07-25T00:43:49;14.63;;;13.93;;
39066;SDS011;24821;51.988;6.020;2022-07-25T00:46:15;14.35;;;13.65;;
39066;SDS011;24821;51.988;6.020;2022-07-25T00:48:41;15.93;;;14.50;;
39066;SDS011;24821;51.988;6.020;2022-07-25T00:51:08;15.25;;;14.55;;
39066;SDS011;24821;51.988;6.020;2022-07-25T00:53:37;13.20;;;12.60;;
39066;SDS011;24821;51.988;6.020;2022-07-25T00:56:04;13.93;;;13.32;;
39066;SDS011;24821;51.988;6.020;2022-07-25T00:58:30;12.82;;;12.23;;
39066;SDS011;24821;51.988;6.020;2022-07-25T01:00:56;13.25;;;12.55;;
39066;SDS011;24821;51.988;6.020;2022-07-25T01:03:22;14.23;;;13.52;;
39066;SDS011;24821;51.988;6.020;2022-07-25T01:05:48;13.77;;;12.98;;
39066;SDS011;24821;51.988;6.020;2022-07-25T01:08:15;13.75;;;13.05;;
39066;SDS011;24821;51.988;6.020;2022-07-25T01:10:42;16.60;;;15.80;;
39066;SDS011;24821;51.988;6.020;2022-07-25T01:13:08;17.63;;;16.73;;
39066;SDS011;24821;51.988;6.020;2022-07-25T01:15:34;14.45;;;13.75;;
39066;SDS011;24821;51.988;6.020;2022-07-25T01:17:59;15.18;;;14.38;;
39066;SDS011;24821;51.988;6.020;2022-07-25T01:20:26;15.18;;;14.48;;
39066;SDS011;24821;51.988;6.020;2022-07-25T01:22:52;15.23;;;14.43;;
39066;SDS011;24821;51.988;6.020;2022-07-25T01:25:18;16.27;;;15.38;;
39066;SDS011;24821;51.988;6.020;2022-07-25T01:27:44;17.80;;;16.90;;
39066;SDS011;24821;51.988;6.020;2022-07-25T01:30:12;15.70;;;14.80;;
39066;SDS011;24821;51.988;6.020;2022-07-25T01:32:39;13.68;;;12.98;;
39066;SDS011;24821;51.988;6.020;2022-07-25T01:35:05;15.85;;;15.05;;
39066;SDS011;24821;51.988;6.020;2022-07-25T01:37:32;14.25;;;13.52;;
39066;SDS011;24821;51.988;6.020;2022-07-25T01:39:58;18.10;;;17.20;;
39066;SDS011;24821;51.988;6.020;2022-07-25T01:42:24;17.98;;;16.95;;
39066;SDS011;24821;51.988;6.020;2022-07-25T01:44:49;16.35;;;15.55;;
39066;SDS011;24821;51.988;6.020;2022-07-25T01:47:15;17.63;;;16.75;;
39066;SDS011;24821;51.988;6.020;2022-07-25T01:49:42;17.05;;;16.25;;
39066;SDS011;24821;51.988;6.020;2022-07-25T01:52:08;18.00;;;17.00;;
39066;SDS011;24821;51.988;6.020;2022-07-25T01:54:34;14.77;;;14.07;;
39066;SDS011;24821;51.988;6.020;2022-07-25T01:56:59;13.00;;;12.32;;
39066;SDS011;24821;51.988;6.020;2022-07-25T01:59:25;18.15;;;17.25;;
39066;SDS011;24821;51.988;6.020;2022-07-25T02:01:50;18.50;;;17.60;;
39066;SDS011;24821;51.988;6.020;2022-07-25T02:04:16;18.45;;;17.42;;
39066;SDS011;24821;51.988;6.020;2022-07-25T02:06:41;20.48;;;19.48;;
39066;SDS011;24821;51.988;6.020;2022-07-25T02:09:07;19.92;;;18.92;;
39066;SDS011;24821;51.988;6.020;2022-07-25T02:11:33;20.27;;;19.27;;
39066;SDS011;24821;51.988;6.020;2022-07-25T02:13:59;20.23;;;19.15;;
39066;SDS011;24821;51.988;6.020;2022-07-25T02:16:25;21.13;;;20.10;;
39066;SDS011;24821;51.988;6.020;2022-07-25T02:18:50;21.30;;;20.10;;
39066;SDS011;24821;51.988;6.020;2022-07-25T02:21:16;21.75;;;20.63;;
39066;SDS011;24821;51.988;6.020;2022-07-25T02:23:42;19.98;;;18.95;;
39066;SDS011;24821;51.988;6.020;2022-07-25T02:26:08;21.08;;;19.73;;
39066;SDS011;24821;51.988;6.020;2022-07-25T02:28:34;20.00;;;19.00;;
39066;SDS011;24821;51.988;6.020;2022-07-25T02:31:00;21.90;;;20.60;;
39066;SDS011;24821;51.988;6.020;2022-07-25T02:33:25;19.33;;;18.42;;
39066;SDS011;24821;51.988;6.020;2022-07-25T02:35:51;18.15;;;17.25;;
39066;SDS011;24821;51.988;6.020;2022-07-25T02:38:16;18.48;;;17.58;;
39066;SDS011;24821;51.988;6.020;2022-07-25T02:40:45;20.25;;;19.17;;
39066;SDS011;24821;51.988;6.020;2022-07-25T02:43:11;20.35;;;19.33;;
39066;SDS011;24821;51.988;6.020;2022-07-25T02:45:37;19.58;;;18.63;;
39066;SDS011;24821;51.988;6.020;2022-07-25T02:48:03;18.73;;;17.80;;
39066;SDS011;24821;51.988;6.020;2022-07-25T02:50:29;19.05;;;18.05;;
39066;SDS011;24821;51.988;6.020;2022-07-25T02:52:54;21.48;;;20.40;;
39066;SDS011;24821;51.988;6.020;2022-07-25T02:55:20;21.08;;;20.05;;
39066;SDS011;24821;51.988;6.020;2022-07-25T02:57:45;20.73;;;19.60;;
39066;SDS011;24821;51.988;6.020;2022-07-25T03:00:11;21.60;;;20.50;;
39066;SDS011;24821;51.988;6.020;2022-07-25T03:02:38;18.73;;;17.63;;
39066;SDS011;24821;51.988;6.020;2022-07-25T03:05:07;17.30;;;16.40;;
39066;SDS011;24821;51.988;6.020;2022-07-25T03:07:34;17.95;;;16.85;;
39066;SDS011;24821;51.988;6.020;2022-07-25T03:09:59;18.33;;;17.42;;
39066;SDS011;24821;51.988;6.020;2022-07-25T03:12:25;18.70;;;17.77;;
39066;SDS011;24821;51.988;6.020;2022-07-25T03:14:51;19.58;;;18.48;;
39066;SDS011;24821;51.988;6.020;2022-07-25T03:17:16;19.25;;;18.35;;
39066;SDS011;24821;51.988;6.020;2022-07-25T03:19:42;22.08;;;20.73;;
39066;SDS011;24821;51.988;6.020;2022-07-25T03:22:08;19.23;;;18.20;;
39066;SDS011;24821;51.988;6.020;2022-07-25T03:24:34;19.33;;;18.20;;
39066;SDS011;24821;51.988;6.020;2022-07-25T03:26:59;18.40;;;17.17;;
39066;SDS011;24821;51.988;6.020;2022-07-25T03:29:25;21.05;;;19.88;;
39066;SDS011;24821;51.988;6.020;2022-07-25T03:31:50;21.63;;;20.52;;
39066;SDS011;24821;51.988;6.020;2022-07-25T03:34:16;20.15;;;19.05;;
39066;SDS011;24821;51.988;6.020;2022-07-25T03:36:42;22.35;;;21.08;;
39066;SDS011;24821;51.988;6.020;2022-07-25T03:39:07;20.95;;;19.85;;
39066;SDS011;24821;51.988;6.020;2022-07-25T03:41:33;20.95;;;19.85;;
39066;SDS011;24821;51.988;6.020;2022-07-25T03:43:58;22.25;;;21.02;;
39066;SDS011;24821;51.988;6.020;2022-07-25T03:46:24;20.92;;;19.73;;
39066;SDS011;24821;51.988;6.020;2022-07-25T03:48:49;22.85;;;21.55;;
39066;SDS011;24821;51.988;6.020;2022-07-25T03:51:15;22.25;;;21.13;;
39066;SDS011;24821;51.988;6.020;2022-07-25T03:53:40;23.65;;;22.40;;
39066;SDS011;24821;51.988;6.020;2022-07-25T03:56:24;23.17;;;21.98;;
39066;SDS011;24821;51.988;6.020;2022-07-25T03:58:50;23.75;;;22.45;;
39066;SDS011;24821;51.988;6.020;2022-07-25T04:01:16;22.70;;;21.40;;
39066;SDS011;24821;51.988;6.020;2022-07-25T04:03:41;24.45;;;22.92;;
39066;SDS011;24821;51.988;6.020;2022-07-25T04:06:07;23.63;;;22.33;;
39066;SDS011;24821;51.988;6.020;2022-07-25T04:08:32;25.55;;;24.23;;
39066;SDS011;24821;51.988;6.020;2022-07-25T04:10:58;22.77;;;21.52;;
39066;SDS011;24821;51.988;6.020;2022-07-25T04:13:23;25.05;;;23.75;;
39066;SDS011;24821;51.988;6.020;2022-07-25T04:15:49;24.80;;;23.50;;
39066;SDS011;24821;51.988;6.020;2022-07-25T04:18:15;23.83;;;22.52;;
39066;SDS011;24821;51.988;6.020;2022-07-25T04:20:40;23.98;;;22.58;;
39066;SDS011;24821;51.988;6.020;2022-07-25T04:23:06;24.05;;;22.75;;
39066;SDS011;24821;51.988;6.020;2022-07-25T04:25:32;24.15;;;22.80;;
39066;SDS011;24821;51.988;6.020;2022-07-25T04:27:57;25.45;;;24.05;;
39066;SDS011;24821;51.988;6.020;2022-07-25T04:30:23;29.52;;;27.92;;
39066;SDS011;24821;51.988;6.020;2022-07-25T04:32:48;24.23;;;22.92;;
39066;SDS011;24821;51.988;6.020;2022-07-25T04:35:13;28.40;;;26.95;;
39066;SDS011;24821;51.988;6.020;2022-07-25T04:37:39;46.63;;;43.55;;
39066;SDS011;24821;51.988;6.020;2022-07-25T04:40:05;40.35;;;37.60;;
39066;SDS011;24821;51.988;6.020;2022-07-25T04:42:30;62.67;;;57.83;;
39066;SDS011;24821;51.988;6.020;2022-07-25T04:44:56;39.10;;;36.60;;
39066;SDS011;24821;51.988;6.020;2022-07-25T04:47:21;32.53;;;30.65;;
39066;SDS011;24821;51.988;6.020;2022-07-25T04:49:47;33.42;;;31.73;;
39066;SDS011;24821;51.988;6.020;2022-07-25T04:52:13;29.50;;;27.80;;
39066;SDS011;24821;51.988;6.020;2022-07-25T04:54:38;25.13;;;23.83;;
39066;SDS011;24821;51.988;6.020;2022-07-25T04:57:04;26.83;;;25.52;;
39066;SDS011;24821;51.988;6.020;2022-07-25T04:59:29;26.75;;;25.35;;
39066;SDS011;24821;51.988;6.020;2022-07-25T05:01:55;29.15;;;27.63;;
39066;SDS011;24821;51.988;6.020;2022-07-25T05:04:21;35.20;;;33.28;;
39066;SDS011;24821;51.988;6.020;2022-07-25T05:06:46;43.25;;;41.15;;
39066;SDS011;24821;51.988;6.020;2022-07-25T05:09:12;28.08;;;26.40;;
39066;SDS011;24821;51.988;6.020;2022-07-25T05:11:37;32.22;;;30.58;;
39066;SDS011;24821;51.988;6.020;2022-07-25T05:14:03;28.90;;;27.40;;
39066;SDS011;24821;51.988;6.020;2022-07-25T05:16:29;24.75;;;23.25;;
39066;SDS011;24821;51.988;6.020;2022-07-25T05:18:54;22.00;;;20.70;;
39066;SDS011;24821;51.988;6.020;2022-07-25T05:21:20;17.92;;;16.95;;
39066;SDS011;24821;51.988;6.020;2022-07-25T05:23:45;15.68;;;14.77;;
39066;SDS011;24821;51.988;6.020;2022-07-25T05:26:11;14.73;;;13.93;;
39066;SDS011;24821;51.988;6.020;2022-07-25T05:28:36;14.73;;;13.73;;
39066;SDS011;24821;51.988;6.020;2022-07-25T05:31:02;14.95;;;13.98;;
39066;SDS011;24821;51.988;6.020;2022-07-25T05:33:28;13.73;;;12.85;;
39066;SDS011;24821;51.988;6.020;2022-07-25T05:35:53;14.02;;;13.07;;
39066;SDS011;24821;51.988;6.020;2022-07-25T05:38:19;13.77;;;12.82;;
39066;SDS011;24821;51.988;6.020;2022-07-25T05:40:44;13.85;;;12.98;;
39066;SDS011;24821;51.988;6.020;2022-07-25T05:43:10;14.43;;;13.52;;
39066;SDS011;24821;51.988;6.020;2022-07-25T05:45:35;14.63;;;13.73;;
39066;SDS011;24821;51.988;6.020;2022-07-25T05:48:01;15.02;;;14.02;;
39066;SDS011;24821;51.988;6.020;2022-07-25T05:50:26;14.18;;;13.25;;
39066;SDS011;24821;51.988;6.020;2022-07-25T05:52:52;14.77;;;13.68;;
39066;SDS011;24821;51.988;6.020;2022-07-25T05:55:18;15.02;;;13.82;;
39066;SDS011;24821;51.988;6.020;2022-07-25T05:57:43;16.38;;;15.27;;
39066;SDS011;24821;51.988;6.020;2022-07-25T06:00:09;14.40;;;13.27;;
39066;SDS011;24821;51.988;6.020;2022-07-25T06:02:35;16.10;;;14.70;;
39066;SDS011;24821;51.988;6.020;2022-07-25T06:05:00;15.38;;;14.45;;
39066;SDS011;24821;51.988;6.020;2022-07-25T06:07:26;15.50;;;14.50;;
39066;SDS011;24821;51.988;6.020;2022-07-25T06:09:51;14.75;;;13.75;;
39066;SDS011;24821;51.988;6.020;2022-07-25T06:12:17;15.40;;;14.40;;
39066;SDS011;24821;51.988;6.020;2022-07-25T06:14:42;12.50;;;11.70;;
39066;SDS011;24821;51.988;6.020;2022-07-25T06:17:08;13.93;;;13.02;;
39066;SDS011;24821;51.988;6.020;2022-07-25T06:19:33;12.90;;;12.10;;
39066;SDS011;24821;51.988;6.020;2022-07-25T06:21:59;13.73;;;12.82;;
39066;SDS011;24821;51.988;6.020;2022-07-25T06:24:24;13.27;;;12.48;;
39066;SDS011;24821;51.988;6.020;2022-07-25T06:26:50;14.13;;;13.18;;
39066;SDS011;24821;51.988;6.020;2022-07-25T06:29:16;13.55;;;12.75;;
39066;SDS011;24821;51.988;6.020;2022-07-25T06:31:41;14.27;;;13.48;;
39066;SDS011;24821;51.988;6.020;2022-07-25T06:34:07;14.57;;;13.63;;
39066;SDS011;24821;51.988;6.020;2022-07-25T06:36:32;17.25;;;16.15;;
39066;SDS011;24821;51.988;6.020;2022-07-25T06:38:58;14.38;;;13.43;;
39066;SDS011;24821;51.988;6.020;2022-07-25T06:41:24;15.02;;;14.13;;
39066;SDS011;24821;51.988;6.020;2022-07-25T06:43:49;14.75;;;13.85;;
39066;SDS011;24821;51.988;6.020;2022-07-25T06:46:15;14.07;;;13.27;;
39066;SDS011;24821;51.988;6.020;2022-07-25T06:48:40;21.00;;;19.35;;
39066;SDS011;24821;51.988;6.020;2022-07-25T06:51:06;14.68;;;13.63;;
39066;SDS011;24821;51.988;6.020;2022-07-25T06:53:31;14.13;;;13.13;;
39066;SDS011;24821;51.988;6.020;2022-07-25T06:55:57;15.48;;;14.48;;
39066;SDS011;24821;51.988;6.020;2022-07-25T06:58:23;13.52;;;12.57;;
39066;SDS011;24821;51.988;6.020;2022-07-25T07:00:49;14.80;;;13.80;;
39066;SDS011;24821;51.988;6.020;2022-07-25T07:03:14;18.30;;;16.77;;
39066;SDS011;24821;51.988;6.020;2022-07-25T07:05:40;18.25;;;17.05;;
39066;SDS011;24821;51.988;6.020;2022-07-25T07:08:05;19.85;;;18.60;;
39066;SDS011;24821;51.988;6.020;2022-07-25T07:10:31;19.13;;;17.80;;
39066;SDS011;24821;51.988;6.020;2022-07-25T07:13:04;22.42;;;21.08;;
39066;SDS011;24821;51.988;6.020;2022-07-25T07:15:31;18.80;;;17.80;;
39066;SDS011;24821;51.988;6.020;2022-07-25T07:17:56;16.95;;;16.05;;
39066;SDS011;24821;51.988;6.020;2022-07-25T07:20:22;16.25;;;15.25;;
39066;SDS011;24821;51.988;6.020;2022-07-25T07:22:48;15.20;;;14.30;;
39066;SDS011;24821;51.988;6.020;2022-07-25T07:25:14;15.90;;;14.88;;
39066;SDS011;24821;51.988;6.020;2022-07-25T07:27:42;14.23;;;13.32;;
39066;SDS011;24821;51.988;6.020;2022-07-25T07:30:08;17.73;;;16.42;;
39066;SDS011;24821;51.988;6.020;2022-07-25T07:32:34;15.55;;;14.38;;
39066;SDS011;24821;51.988;6.020;2022-07-25T07:35:00;16.42;;;15.38;;
39066;SDS011;24821;51.988;6.020;2022-07-25T07:37:26;16.00;;;15.02;;
39066;SDS011;24821;51.988;6.020;2022-07-25T07:39:51;15.95;;;14.73;;
39066;SDS011;24821;51.988;6.020;2022-07-25T07:42:17;13.70;;;12.73;;
39066;SDS011;24821;51.988;6.020;2022-07-25T07:44:42;19.30;;;18.10;;
39066;SDS011;24821;51.988;6.020;2022-07-25T07:47:08;14.30;;;13.50;;
39066;SDS011;24821;51.988;6.020;2022-07-25T07:49:33;15.38;;;14.48;;
39066;SDS011;24821;51.988;6.020;2022-07-25T07:51:59;17.15;;;16.23;;
39066;SDS011;24821;51.988;6.020;2022-07-25T07:54:25;14.68;;;13.88;;
39066;SDS011;24821;51.988;6.020;2022-07-25T07:57:09;11.98;;;11.13;;
39066;SDS011;24821;51.988;6.020;2022-07-25T07:59:34;15.45;;;14.43;;
39066;SDS011;24821;51.988;6.020;2022-07-25T08:02:00;9.73;;;9.02;;
39066;SDS011;24821;51.988;6.020;2022-07-25T08:04:25;9.23;;;8.45;;
39066;SDS011;24821;51.988;6.020;2022-07-25T08:06:51;10.43;;;9.63;;
39066;SDS011;24821;51.988;6.020;2022-07-25T08:09:16;13.40;;;12.73;;
39066;SDS011;24821;51.988;6.020;2022-07-25T08:11:42;14.63;;;13.82;;
39066;SDS011;24821;51.988;6.020;2022-07-25T08:14:08;11.40;;;10.63;;
39066;SDS011;24821;51.988;6.020;2022-07-25T08:16:33;8.77;;;8.27;;
39066;SDS011;24821;51.988;6.020;2022-07-25T08:18:59;8.85;;;8.32;;
39066;SDS011;24821;51.988;6.020;2022-07-25T08:21:24;14.93;;;14.18;;
39066;SDS011;24821;51.988;6.020;2022-07-25T08:23:50;10.50;;;10.00;;
39066;SDS011;24821;51.988;6.020;2022-07-25T08:26:15;10.43;;;9.75;;
39066;SDS011;24821;51.988;6.020;2022-07-25T08:28:41;8.35;;;7.85;;
39066;SDS011;24821;51.988;6.020;2022-07-25T08:31:07;9.57;;;8.98;;
39066;SDS011;24821;51.988;6.020;2022-07-25T08:33:32;10.55;;;9.93;;
39066;SDS011;24821;51.988;6.020;2022-07-25T08:35:58;7.38;;;7.00;;
39066;SDS011;24821;51.988;6.020;2022-07-25T08:38:25;19.67;;;18.55;;
39066;SDS011;24821;51.988;6.020;2022-07-25T08:40:52;10.23;;;9.60;;
39066;SDS011;24821;51.988;6.020;2022-07-25T08:43:18;10.00;;;9.32;;
39066;SDS011;24821;51.988;6.020;2022-07-25T08:45:45;9.70;;;9.02;;
39066;SDS011;24821;51.988;6.020;2022-07-25T08:48:12;10.70;;;10.18;;
39066;SDS011;24821;51.988;6.020;2022-07-25T08:50:40;9.23;;;8.82;;
39066;SDS011;24821;51.988;6.020;2022-07-25T08:53:06;6.95;;;6.55;;
39066;SDS011;24821;51.988;6.020;2022-07-25T08:55:32;6.13;;;5.82;;
39066;SDS011;24821;51.988;6.020;2022-07-25T08:57:57;9.07;;;8.48;;
39066;SDS011;24821;51.988;6.020;2022-07-25T09:00:24;4.80;;;4.60;;
39066;SDS011;24821;51.988;6.020;2022-07-25T09:05:22;5.38;;;5.18;;
39066;SDS011;24821;51.988;6.020;2022-07-25T09:07:48;10.00;;;9.57;;
39066;SDS011;24821;51.988;6.020;2022-07-25T09:10:19;7.65;;;7.10;;
39066;SDS011;24821;51.988;6.020;2022-07-25T09:15:30;10.80;;;10.30;;
39066;SDS011;24821;51.988;6.020;2022-07-25T09:17:57;9.90;;;9.43;;
39066;SDS011;24821;51.988;6.020;2022-07-25T09:28:27;14.35;;;13.65;;
39066;SDS011;24821;51.988;6.020;2022-07-25T09:30:57;12.25;;;11.63;;
39066;SDS011;24821;51.988;6.020;2022-07-25T09:33:24;10.35;;;9.85;;
39066;SDS011;24821;51.988;6.020;2022-07-25T09:35:50;14.27;;;13.68;;
39066;SDS011;24821;51.988;6.020;2022-07-25T09:38:17;10.90;;;10.18;;
39066;SDS011;24821;51.988;6.020;2022-07-25T09:40:59;14.30;;;13.60;;
39066;SDS011;24821;51.988;6.020;2022-07-25T09:43:36;10.13;;;9.63;;
39066;SDS011;24821;51.988;6.020;2022-07-25T09:46:03;13.15;;;12.40;;
39066;SDS011;24821;51.988;6.020;2022-07-25T09:48:29;12.50;;;12.00;;
39066;SDS011;24821;51.988;6.020;2022-07-25T09:50:56;8.07;;;7.68;;
39066;SDS011;24821;51.988;6.020;2022-07-25T09:53:21;10.90;;;10.30;;
39066;SDS011;24821;51.988;6.020;2022-07-25T09:55:48;10.07;;;9.45;;
39066;SDS011;24821;51.988;6.020;2022-07-25T09:58:13;13.80;;;13.13;;
39066;SDS011;24821;51.988;6.020;2022-07-25T10:00:39;9.93;;;9.43;;
39066;SDS011;24821;51.988;6.020;2022-07-25T10:03:17;15.38;;;14.60;;
39066;SDS011;24821;51.988;6.020;2022-07-25T10:05:50;14.20;;;13.60;;
39066;SDS011;24821;51.988;6.020;2022-07-25T10:08:36;11.07;;;10.57;;
39066;SDS011;24821;51.988;6.020;2022-07-25T10:11:03;12.85;;;12.35;;
39066;SDS011;24821;51.988;6.020;2022-07-25T10:13:31;15.90;;;11.38;;
39066;SDS011;24821;51.988;6.020;2022-07-25T10:16:12;5.32;;;5.03;;
39066;SDS011;24821;51.988;6.020;2022-07-25T10:18:46;8.45;;;7.95;;
39066;SDS011;24821;51.988;6.020;2022-07-25T10:21:13;10.65;;;10.05;;
39066;SDS011;24821;51.988;6.020;2022-07-25T10:23:39;8.88;;;8.57;;
39066;SDS011;24821;51.988;6.020;2022-07-25T10:26:13;6.18;;;5.93;;
39066;SDS011;24821;51.988;6.020;2022-07-25T10:28:47;8.32;;;7.82;;
39066;SDS011;24821;51.988;6.020;2022-07-25T10:31:23;6.38;;;6.07;;
39066;SDS011;24821;51.988;6.020;2022-07-25T10:33:56;10.48;;;9.98;;
39066;SDS011;24821;51.988;6.020;2022-07-25T10:36:24;11.10;;;10.60;;
39066;SDS011;24821;51.988;6.020;2022-07-25T10:38:59;10.68;;;10.10;;
39066;SDS011;24821;51.988;6.020;2022-07-25T10:41:25;7.47;;;7.07;;
39066;SDS011;24821;51.988;6.020;2022-07-25T10:43:54;14.02;;;13.07;;
39066;SDS011;24821;51.988;6.020;2022-07-25T10:46:21;10.95;;;10.38;;
39066;SDS011;24821;51.988;6.020;2022-07-25T10:48:58;10.32;;;9.75;;
39066;SDS011;24821;51.988;6.020;2022-07-25T10:51:26;12.45;;;11.80;;
39066;SDS011;24821;51.988;6.020;2022-07-25T10:53:53;9.88;;;9.05;;
39066;SDS011;24821;51.988;6.020;2022-07-25T10:56:20;9.25;;;8.65;;
39066;SDS011;24821;51.988;6.020;2022-07-25T10:58:50;10.45;;;9.85;;
39066;SDS011;24821;51.988;6.020;2022-07-25T11:01:24;8.75;;;8.35;;
39066;SDS011;24821;51.988;6.020;2022-07-25T11:04:01;8.23;;;7.63;;
39066;SDS011;24821;51.988;6.020;2022-07-25T11:06:40;11.93;;;11.38;;
39066;SDS011;24821;51.988;6.020;2022-07-25T11:09:22;8.75;;;8.02;;
39066;SDS011;24821;51.988;6.020;2022-07-25T11:11:53;9.70;;;9.02;;
39066;SDS011;24821;51.988;6.020;2022-07-25T11:17:07;7.47;;;7.07;;
39066;SDS011;24821;51.988;6.020;2022-07-25T11:19:52;10.75;;;10.25;;
39066;SDS011;24821;51.988;6.020;2022-07-25T11:22:17;10.40;;;9.80;;
39066;SDS011;24821;51.988;6.020;2022-07-25T11:24:45;9.52;;;9.02;;
39066;SDS011;24821;51.988;6.020;2022-07-25T11:27:12;10.80;;;10.20;;
39066;SDS011;24821;51.988;6.020;2022-07-25T11:30:17;7.22;;;6.45;;
39066;SDS011;24821;51.988;6.020;2022-07-25T11:32:44;7.35;;;6.40;;
39066;SDS011;24821;51.988;6.020;2022-07-25T11:35:10;7.53;;;7.13;;
39066;SDS011;24821;51.988;6.020;2022-07-25T11:37:38;6.50;;;6.10;;
39066;SDS011;24821;51.988;6.020;2022-07-25T11:40:06;7.85;;;7.40;;
39066;SDS011;24821;51.988;6.020;2022-07-25T11:42:39;7.82;;;7.28;;
39066;SDS011;24821;51.988;6.020;2022-07-25T11:45:15;6.10;;;5.80;;
39066;SDS011;24821;51.988;6.020;2022-07-25T11:47:42;8.45;;;7.85;;
39066;SDS011;24821;51.988;6.020;2022-07-25T11:50:07;9.32;;;8.65;;
39066;SDS011;24821;51.988;6.020;2022-07-25T11:52:39;8.20;;;7.70;;
39066;SDS011;24821;51.988;6.020;2022-07-25T11:55:11;10.63;;;10.02;;
39066;SDS011;24821;51.988;6.020;2022-07-25T11:57:39;9.50;;;8.80;;
39066;SDS011;24821;51.988;6.020;2022-07-25T12:00:13;7.53;;;6.93;;
39066;SDS011;24821;51.988;6.020;2022-07-25T12:02:45;10.07;;;9.48;;
39066;SDS011;24821;51.988;6.020;2022-07-25T12:05:14;9.32;;;8.75;;
39066;SDS011;24821;51.988;6.020;2022-07-25T12:07:47;8.35;;;7.85;;
39066;SDS011;24821;51.988;6.020;2022-07-25T12:12:51;9.68;;;9.18;;
39066;SDS011;24821;51.988;6.020;2022-07-25T12:15:20;9.32;;;8.60;;
39066;SDS011;24821;51.988;6.020;2022-07-25T12:17:52;7.80;;;7.30;;
39066;SDS011;24821;51.988;6.020;2022-07-25T12:20:20;8.38;;;7.78;;
39066;SDS011;24821;51.988;6.020;2022-07-25T12:22:50;9.90;;;9.32;;
39066;SDS011;24821;51.988;6.020;2022-07-25T12:25:16;8.35;;;7.75;;
39066;SDS011;24821;51.988;6.020;2022-07-25T12:27:42;8.32;;;7.65;;
39066;SDS011;24821;51.988;6.020;2022-07-25T12:30:09;8.15;;;7.43;;
39066;SDS011;24821;51.988;6.020;2022-07-25T12:32:35;8.93;;;8.32;;
39066;SDS011;24821;51.988;6.020;2022-07-25T12:35:02;6.95;;;6.55;;
39066;SDS011;24821;51.988;6.020;2022-07-25T12:37:29;6.05;;;5.63;;
39066;SDS011;24821;51.988;6.020;2022-07-25T12:39:55;6.55;;;6.13;;
39066;SDS011;24821;51.988;6.020;2022-07-25T12:42:21;7.07;;;6.57;;
39066;SDS011;24821;51.988;6.020;2022-07-25T12:44:46;6.68;;;6.30;;
39066;SDS011;24821;51.988;6.020;2022-07-25T12:47:12;15.85;;;14.93;;
39066;SDS011;24821;51.988;6.020;2022-07-25T12:49:38;6.80;;;6.28;;
39066;SDS011;24821;51.988;6.020;2022-07-25T12:52:04;6.90;;;6.40;;
39066;SDS011;24821;51.988;6.020;2022-07-25T12:54:29;7.22;;;6.07;;
39066;SDS011;24821;51.988;6.020;2022-07-25T12:56:55;12.40;;;11.35;;
39066;SDS011;24821;51.988;6.020;2022-07-25T12:59:21;12.07;;;11.13;;
39066;SDS011;24821;51.988;6.020;2022-07-25T13:01:47;11.50;;;10.70;;
39066;SDS011;24821;51.988;6.020;2022-07-25T13:04:13;9.35;;;7.93;;
39066;SDS011;24821;51.988;6.020;2022-07-25T13:06:38;10.68;;;9.88;;
39066;SDS011;24821;51.988;6.020;2022-07-25T13:09:04;12.98;;;11.60;;
39066;SDS011;24821;51.988;6.020;2022-07-25T13:11:30;9.65;;;8.85;;
39066;SDS011;24821;51.988;6.020;2022-07-25T13:13:55;9.77;;;9.18;;
39066;SDS011;24821;51.988;6.020;2022-07-25T13:16:21;9.93;;;9.07;;
39066;SDS011;24821;51.988;6.020;2022-07-25T13:18:47;8.27;;;7.78;;
39066;SDS011;24821;51.988;6.020;2022-07-25T13:21:13;8.77;;;7.65;;
39066;SDS011;24821;51.988;6.020;2022-07-25T13:23:39;9.13;;;8.50;;
39066;SDS011;24821;51.988;6.020;2022-07-25T13:26:05;9.90;;;9.07;;
39066;SDS011;24821;51.988;6.020;2022-07-25T13:28:31;8.48;;;7.88;;
39066;SDS011;24821;51.988;6.020;2022-07-25T13:30:57;8.15;;;7.65;;
39066;SDS011;24821;51.988;6.020;2022-07-25T13:33:23;5.72;;;5.43;;
39066;SDS011;24821;51.988;6.020;2022-07-25T13:35:48;6.25;;;5.85;;
39066;SDS011;24821;51.988;6.020;2022-07-25T13:38:14;7.65;;;7.05;;
39066;SDS011;24821;51.988;6.020;2022-07-25T13:40:39;6.70;;;6.20;;
39066;SDS011;24821;51.988;6.020;2022-07-25T13:43:08;6.88;;;6.32;;
39066;SDS011;24821;51.988;6.020;2022-07-25T13:45:34;6.47;;;5.90;;
39066;SDS011;24821;51.988;6.020;2022-07-25T13:48:00;6.65;;;6.25;;
39066;SDS011;24821;51.988;6.020;2022-07-25T13:50:26;9.18;;;8.55;;
39066;SDS011;24821;51.988;6.020;2022-07-25T13:52:52;11.93;;;11.23;;
39066;SDS011;24821;51.988;6.020;2022-07-25T13:55:21;11.40;;;10.60;;
39066;SDS011;24821;51.988;6.020;2022-07-25T13:57:46;14.20;;;13.38;;
39066;SDS011;24821;51.988;6.020;2022-07-25T14:00:12;16.35;;;15.45;;
39066;SDS011;24821;51.988;6.020;2022-07-25T14:02:38;14.80;;;13.57;;
39066;SDS011;24821;51.988;6.020;2022-07-25T14:05:04;17.38;;;16.17;;
39066;SDS011;24821;51.988;6.020;2022-07-25T14:07:29;9.50;;;8.43;;
39066;SDS011;24821;51.988;6.020;2022-07-25T14:09:55;10.25;;;9.38;;
39066;SDS011;24821;51.988;6.020;2022-07-25T14:12:21;10.48;;;9.77;;
39066;SDS011;24821;51.988;6.020;2022-07-25T14:14:46;11.73;;;10.93;;
39066;SDS011;24821;51.988;6.020;2022-07-25T14:17:12;8.48;;;7.88;;
39066;SDS011;24821;51.988;6.020;2022-07-25T14:19:37;9.45;;;8.80;;
39066;SDS011;24821;51.988;6.020;2022-07-25T14:22:03;8.88;;;8.25;;
39066;SDS011;24821;51.988;6.020;2022-07-25T14:24:29;10.15;;;9.32;;
39066;SDS011;24821;51.988;6.020;2022-07-25T14:26:54;7.25;;;6.65;;
39066;SDS011;24821;51.988;6.020;2022-07-25T14:29:20;7.93;;;7.35;;
39066;SDS011;24821;51.988;6.020;2022-07-25T14:31:46;8.10;;;6.60;;
39066;SDS011;24821;51.988;6.020;2022-07-25T14:34:11;7.55;;;6.93;;
39066;SDS011;24821;51.988;6.020;2022-07-25T14:36:39;8.25;;;7.78;;
39066;SDS011;24821;51.988;6.020;2022-07-25T14:39:05;10.60;;;9.80;;
39066;SDS011;24821;51.988;6.020;2022-07-25T14:41:31;9.02;;;8.27;;
39066;SDS011;24821;51.988;6.020;2022-07-25T14:43:56;9.07;;;8.25;;